Hamilton, Nebraska
Current Conditions -  °F | °C
As of 9:55 PM on Saturday 22 Nov 2014 (Local Time) from KHJH Reporting Station
Overcast Overcast  
Wind Chill: 57°   Ceiling: 2000
Heat Index: 57°   Visibility: 10mi
Dew Point: 51°   Wind: 13mph
Humidity: 80%   Direction: 200°SSW
Pressure: 29.58"   Gusts: 20mph
Location:  40.3936°N, 97.5387°W
Report Text: KHJH 230355Z AUTO 20011G17KT 10SM OVC020 14/11 A2958 RMK AO2 T01400106
Loading
Personal Weather Stations






























Interactive Weather Map New forecast layout! Learn more

10-Day Weather Forecast

Advertisements
Track Severe Weather on mobile